HomeShort term forecast

Short term forecast

Graphical weather forecast for the next 48 hours for Montreal:
Short term forecast
This weather forecast is automatically refreshed every 3 hours.

Hourly Experimental Forecast for the next 48 hours

Overall summary: Clear throughout the day.

 Date & Hour   Temp   Feel   Baro   Hum   Speed & Bearing   Wind Gust   Precip.%   Precip.   Visibility   Cloud cover   Conditions 
 28/01/2020 - 22:00  -7.2°C  -10.9°C  1015.2 hPa  87%  7.3 km/h   8.6 km/h  1%  0.02 mm/h  16.1km  42%  Partly Cloudy 
 28/01/2020 - 23:00  -8.1°C  -12.0°C  1015.6 hPa  87%  7.4 km/h   7.6 km/h  0%  --  16.1km  34%  Partly Cloudy 
 29/01/2020 - 00:00  -9.1°C  -13.3°C  1016.1 hPa  87%  7.7 km/h   8.4 km/h  1%  0.05 mm/h  16.1km  28%  Clear 
 29/01/2020 - 01:00  -9.9°C  -13.7°C  1016.2 hPa  86%  6.8 km/h   6.9 km/h  0%  --  16.1km  22%  Clear 
 29/01/2020 - 02:00  -10.7°C  -14.7°C  1016.6 hPa  86%  6.7 km/h   6.9 km/h  0%  --  16.1km  18%  Clear 
 29/01/2020 - 03:00  -11.5°C  -15.2°C  1017.4 hPa  86%  5.9 km/h   6.8 km/h  1%  0.03 mm/h  16.1km  17%  Clear 
 29/01/2020 - 04:00  -12.4°C  -15.8°C  1017.7 hPa  86%  5.3 km/h   6.0 km/h  1%  0.04 mm/h  16.1km  13%  Clear 
 29/01/2020 - 05:00  -13.4°C  -17.1°C  1018.4 hPa  87%  5.6 km/h   6.1 km/h  0%  --  16.1km  13%  Clear 
 29/01/2020 - 06:00  -14.3°C  -18.4°C  1018.7 hPa  87%  6.0 km/h   7.1 km/h  1%  0.01 mm/h  16.1km  16%  Clear 
 29/01/2020 - 07:00  -14.7°C  -19.0°C  1019.5 hPa  87%  6.2 km/h   7.6 km/h  0%  --  16.1km  19%  Clear 
 29/01/2020 - 08:00  -14.1°C  -18.0°C  1020.5 hPa  86%  5.7 km/h   6.8 km/h  0%  --  16.1km  21%  Clear 
 29/01/2020 - 09:00  -12.8°C  -16.0°C  1021.4 hPa  84%  4.9 km/h   6.4 km/h  1%  0.05 mm/h  16.1km  22%  Clear 
 29/01/2020 - 10:00  -11.0°C  -14.3°C  1022.3 hPa  80%  5.4 km/h   6.8 km/h  0%  --  16.1km  23%  Clear 
 29/01/2020 - 11:00  -8.3°C  -11.8°C  1022.6 hPa  76%  6.4 km/h   8.0 km/h  0%  --  16.1km  31%  Clear 
 29/01/2020 - 12:00  -7.3°C  -10.9°C  1022.6 hPa  72%  7.3 km/h   9.7 km/h  0%  --  16.1km  28%  Clear 
 29/01/2020 - 13:00  -6.2°C  -9.9°C  1022.7 hPa  69%  7.7 km/h   10.7 km/h  0%  --  16.1km  24%  Clear 
 29/01/2020 - 14:00  -5.5°C  -8.9°C  1022.8 hPa  68%  7.3 km/h   11.0 km/h  0%  --  16.1km  21%  Clear 
 29/01/2020 - 15:00  -5.6°C  -8.7°C  1023.0 hPa  69%  6.4 km/h   10.7 km/h  0%  --  16.1km  18%  Clear 
 29/01/2020 - 16:00  -6.2°C  -9.0°C  1023.1 hPa  71%  5.7 km/h   9.9 km/h  0%  --  16.1km  15%  Clear 
 29/01/2020 - 17:00  -7.5°C  -10.3°C  1023.8 hPa  75%  5.4 km/h   8.3 km/h  0%  --  16.1km  11%  Clear 
 29/01/2020 - 18:00  -8.8°C  -11.7°C  1024.3 hPa  79%  5.2 km/h   6.3 km/h  0%  --  16.1km  8%  Clear 
 29/01/2020 - 19:00  -10.0°C  -13.0°C  1024.9 hPa  81%  5.1 km/h   5.1 km/h  1%  0.01 mm/h  16.1km  5%  Clear 
 29/01/2020 - 20:00  -10.6°C  -13.8°C  1025.4 hPa  80%  5.3 km/h   5.3 km/h  0%  --  16.1km  3%  Clear 
 29/01/2020 - 21:00  -11.1°C  -14.5°C  1026.0 hPa  80%  5.6 km/h   5.7 km/h  0%  --  16.1km  1%  Clear 
 29/01/2020 - 22:00  -11.5°C  -15.1°C  1026.4 hPa  80%  5.7 km/h   6.1 km/h  0%  --  16.1km  0%  Clear 
 29/01/2020 - 23:00  -12.1°C  -15.5°C  1026.7 hPa  81%  5.3 km/h   5.9 km/h  0%  --  16.1km  1%  Clear 
 30/01/2020 - 00:00  -12.6°C  -12.6°C  1027.0 hPa  82%  4.8 km/h   5.4 km/h  0%  --  16.1km  3%  Clear 
 30/01/2020 - 01:00  -13.2°C  -13.2°C  1027.4 hPa  83%  4.3 km/h   4.8 km/h  0%  --  16.1km  5%  Clear 
 30/01/2020 - 02:00  -13.7°C  -13.7°C  1027.7 hPa  85%  3.9 km/h   4.3 km/h  0%  --  16.1km  7%  Clear 
 30/01/2020 - 03:00  -14.3°C  -14.3°C  1028.2 hPa  87%  3.6 km/h   3.9 km/h  0%  --  16.1km  10%  Clear 
 30/01/2020 - 04:00  -14.8°C  -14.8°C  1028.5 hPa  88%  3.3 km/h   3.4 km/h  0%  --  16.1km  13%  Clear 
 30/01/2020 - 05:00  -15.6°C  -15.6°C  1029.1 hPa  90%  2.9 km/h   3.2 km/h  0%  --  16.1km  19%  Clear 
 30/01/2020 - 06:00  -16.3°C  -16.3°C  1029.2 hPa  92%  2.7 km/h   3.0 km/h  0%  --  16.1km  27%  Clear 
 30/01/2020 - 07:00  -16.4°C  -16.4°C  1029.3 hPa  91%  2.5 km/h   3.0 km/h  0%  --  16.1km  34%  Partly Cloudy 
 30/01/2020 - 08:00  -15.5°C  -15.5°C  1029.6 hPa  89%  2.8 km/h   3.6 km/h  0%  --  16.1km  43%  Partly Cloudy 
 30/01/2020 - 09:00  -14.0°C  -14.0°C  1030.0 hPa  87%  3.2 km/h   4.3 km/h  0%  --  16.1km  52%  Partly Cloudy 
 30/01/2020 - 10:00  -12.5°C  -12.5°C  1029.9 hPa  84%  3.4 km/h   4.7 km/h  0%  --  16.1km  57%  Partly Cloudy 
 30/01/2020 - 11:00  -11.1°C  -11.1°C  1029.5 hPa  79%  3.1 km/h   3.9 km/h  0%  --  16.1km  55%  Partly Cloudy 
 30/01/2020 - 12:00  -9.9°C  -9.9°C  1028.8 hPa  75%  2.5 km/h   2.8 km/h  0%  --  16.1km  50%  Partly Cloudy 
 30/01/2020 - 13:00  -8.5°C  -8.5°C  1028.2 hPa  71%  2.2 km/h   2.2 km/h  0%  --  16.1km  46%  Partly Cloudy 
 30/01/2020 - 14:00  -7.6°C  -7.6°C  1027.9 hPa  69%  2.1 km/h   2.1 km/h  1%  0.01 mm/h  16.1km  47%  Partly Cloudy 
 30/01/2020 - 15:00  -7.0°C  -7.0°C  1027.8 hPa  67%  2.3 km/h   2.5 km/h  1%  0.01 mm/h  16.1km  50%  Partly Cloudy 
 30/01/2020 - 16:00  -7.3°C  -7.3°C  1027.8 hPa  68%  2.5 km/h   3.0 km/h  1%  0.01 mm/h  16.1km  55%  Partly Cloudy 
 30/01/2020 - 17:00  -8.4°C  -8.4°C  1027.7 hPa  71%  3.1 km/h   3.7 km/h  0%  --  16.1km  69%  Mostly Cloudy 
 30/01/2020 - 18:00  -9.8°C  -9.8°C  1027.8 hPa  75%  3.8 km/h   4.4 km/h  0%  --  16.1km  86%  Mostly Cloudy 
 30/01/2020 - 19:00  -10.8°C  -10.8°C  1027.6 hPa  78%  4.2 km/h   4.8 km/h  0%  --  16.1km  96%  Overcast 
 30/01/2020 - 20:00  -11.3°C  -11.3°C  1027.5 hPa  78%  3.8 km/h   4.4 km/h  0%  --  16.1km  90%  Overcast 
 30/01/2020 - 21:00  -11.5°C  -11.5°C  1027.3 hPa  78%  2.9 km/h   3.6 km/h  0%  --  16.1km  77%  Mostly Cloudy 
Test

 

Past weather and reports

Past weatherFind in this section the past weather conditions, weather archive, graphics, reports and statistics.

Current conditions

Current weather condition for MontrealAll you need to know about the current weather conditions for Montreal. Weather data is updated every 10 minutes.

Weather forecast

Current Montreal weatherSince 2004, celinium.com website has provided accurate weather forecast for Montreal's island.